createdAt,value
2017-08-01T00:00:39.427Z,19.20
2017-08-01T00:03:08.539Z,19.20
2017-08-01T00:05:36.962Z,19.10
2017-08-01T00:08:05.412Z,19.00
2017-08-01T00:10:33.959Z,18.90
2017-08-01T00:13:02.398Z,19.00
2017-08-01T00:15:30.819Z,19.00
2017-08-01T00:17:59.998Z,18.90
2017-08-01T00:20:28.473Z,18.80
2017-08-01T00:22:57.512Z,18.90
2017-08-01T00:25:25.947Z,18.90
2017-08-01T00:27:55.050Z,18.80
2017-08-01T00:30:23.500Z,18.80
2017-08-01T00:32:52.619Z,18.90
2017-08-01T00:35:21.046Z,18.90
2017-08-01T00:37:49.482Z,18.90
2017-08-01T00:40:17.906Z,18.90
2017-08-01T00:42:46.482Z,18.90
2017-08-01T00:45:15.680Z,18.70
2017-08-01T00:47:44.864Z,18.60
2017-08-01T00:50:14.039Z,18.50
2017-08-01T00:52:42.487Z,18.50
2017-08-01T00:55:10.927Z,18.50
2017-08-01T00:57:40.140Z,18.70
2017-08-01T01:00:09.322Z,18.80
2017-08-01T01:02:38.523Z,18.80
2017-08-01T01:05:06.961Z,18.70
2017-08-01T01:07:35.640Z,18.60
2017-08-01T01:10:04.067Z,18.50
2017-08-01T01:12:32.500Z,18.40
2017-08-01T01:15:00.933Z,18.30
2017-08-01T01:17:30.054Z,18.40
2017-08-01T01:19:58.487Z,18.50
2017-08-01T01:22:26.923Z,18.60
2017-08-01T01:24:55.472Z,18.70
2017-08-01T01:27:23.890Z,18.70
2017-08-01T01:29:52.327Z,18.60
2017-08-01T01:32:20.399Z,18.50
2017-08-01T01:34:48.846Z,18.50
2017-08-01T01:37:16.930Z,18.60
2017-08-01T01:39:45.353Z,18.70
2017-08-01T01:42:14.190Z,18.50
2017-08-01T01:44:41.926Z,18.40
2017-08-01T01:47:10.359Z,18.40
2017-08-01T01:49:38.784Z,18.30
2017-08-01T01:52:07.555Z,18.40
2017-08-01T01:54:36.667Z,18.40
2017-08-01T01:57:05.879Z,18.70
2017-08-01T01:59:35.878Z,18.70
2017-08-01T02:02:05.091Z,18.70
2017-08-01T02:04:33.529Z,18.60
2017-08-01T02:07:01.964Z,18.60
2017-08-01T02:09:31.513Z,19.00
2017-08-01T02:11:59.869Z,19.00
2017-08-01T02:14:28.279Z,19.30
2017-08-01T02:16:56.730Z,19.60
2017-08-01T02:19:25.162Z,20.20
2017-08-01T02:21:53.703Z,20.90
2017-08-01T02:24:21.806Z,20.70
2017-08-01T02:26:50.255Z,21.10
2017-08-01T02:29:19.497Z,21.40
2017-08-01T02:31:47.916Z,21.40
2017-08-01T02:34:16.362Z,21.50
2017-08-01T02:36:44.794Z,21.40
2017-08-01T02:39:13.231Z,21.30
2017-08-01T02:41:42.359Z,21.30
2017-08-01T02:44:10.810Z,21.20
2017-08-01T02:46:39.283Z,21.10
2017-08-01T02:49:08.395Z,20.90
2017-08-01T02:51:37.585Z,20.60
2017-08-01T02:54:06.203Z,20.60
2017-08-01T02:56:34.644Z,20.50
2017-08-01T02:59:03.127Z,20.40
2017-08-01T03:01:31.547Z,20.30
2017-08-01T03:04:00.005Z,20.30
2017-08-01T03:06:29.207Z,20.10
2017-08-01T03:08:58.402Z,20.00
2017-08-01T03:11:27.614Z,20.00
2017-08-01T03:13:56.055Z,19.90
2017-08-01T03:16:24.507Z,19.90
2017-08-01T03:18:52.947Z,19.90
2017-08-01T03:21:22.140Z,19.70
2017-08-01T03:23:51.261Z,19.60
2017-08-01T03:26:20.383Z,19.70
2017-08-01T03:28:48.825Z,19.60
2017-08-01T03:31:18.024Z,19.50
2017-08-01T03:33:47.235Z,19.50
2017-08-01T03:36:16.452Z,19.50
2017-08-01T03:38:44.879Z,19.40
2017-08-01T03:41:13.307Z,19.40
2017-08-01T03:43:41.762Z,19.40
2017-08-01T03:46:10.967Z,19.30
2017-08-01T03:48:40.216Z,19.30
2017-08-01T03:51:08.642Z,19.20
2017-08-01T03:53:37.774Z,19.30
2017-08-01T03:56:06.211Z,19.30
2017-08-01T03:58:34.662Z,19.30
2017-08-01T04:01:03.807Z,19.30
2017-08-01T04:03:33.001Z,19.30
2017-08-01T04:06:02.151Z,19.20
2017-08-01T04:08:30.578Z,19.20
2017-08-01T04:10:58.989Z,19.20
2017-08-01T04:13:27.460Z,19.20
2017-08-01T04:15:56.651Z,19.20
2017-08-01T04:18:25.934Z,19.10
2017-08-01T04:20:54.354Z,19.10
2017-08-01T04:23:22.890Z,19.20
2017-08-01T04:25:51.539Z,19.10
2017-08-01T04:28:19.963Z,19.10
2017-08-01T04:30:48.410Z,19.10
2017-08-01T04:33:16.831Z,19.20
2017-08-01T04:35:45.444Z,19.10
2017-08-01T04:38:14.668Z,19.10
2017-08-01T04:40:43.090Z,19.10
2017-08-01T04:43:11.599Z,19.10
2017-08-01T04:45:40.810Z,19.20
2017-08-01T04:48:09.254Z,19.20
2017-08-01T04:50:37.706Z,19.20
2017-08-01T04:53:06.162Z,19.20
2017-08-01T04:55:34.614Z,19.30
2017-08-01T04:58:03.815Z,19.30
2017-08-01T05:00:33.026Z,19.40
2017-08-01T05:03:02.222Z,19.40
2017-08-01T05:05:31.427Z,19.40
2017-08-01T05:08:00.640Z,19.40
2017-08-01T05:10:29.065Z,19.40
2017-08-01T05:12:57.492Z,19.40
2017-08-01T05:15:26.165Z,19.40
2017-08-01T05:17:55.363Z,19.60
2017-08-01T05:20:24.574Z,19.70
2017-08-01T05:22:53.787Z,20.00
2017-08-01T05:25:21.522Z,19.90
2017-08-01T05:27:50.724Z,20.30
2017-08-01T05:30:19.937Z,20.40
2017-08-01T05:32:48.450Z,20.40
2017-08-01T05:35:16.888Z,20.60
2017-08-01T05:37:45.298Z,20.70
2017-08-01T05:40:13.743Z,20.80
2017-08-01T05:42:42.927Z,20.70
2017-08-01T05:45:11.375Z,20.70
2017-08-01T05:47:39.791Z,20.70
2017-08-01T05:50:08.340Z,20.60
2017-08-01T05:52:36.823Z,20.50
2017-08-01T05:55:05.305Z,20.50
2017-08-01T05:57:33.749Z,20.50
2017-08-01T06:00:02.951Z,20.60
2017-08-01T06:02:32.156Z,20.60
2017-08-01T06:05:01.262Z,20.50
2017-08-01T06:07:29.726Z,20.50
2017-08-01T06:09:58.963Z,20.40
2017-08-01T06:12:27.527Z,20.40
2017-08-01T06:14:55.764Z,20.40
2017-08-01T06:17:24.195Z,20.30
2017-08-01T06:19:52.634Z,20.30
2017-08-01T06:22:21.058Z,20.40
2017-08-01T06:24:49.323Z,20.30
2017-08-01T06:27:17.903Z,20.40
2017-08-01T06:29:46.333Z,20.40
2017-08-01T06:32:14.799Z,20.40
2017-08-01T06:34:43.310Z,20.40
2017-08-01T06:37:11.738Z,20.60
2017-08-01T06:39:40.219Z,20.80
2017-08-01T06:42:08.651Z,21.10
2017-08-01T06:44:37.103Z,21.20
2017-08-01T06:47:05.538Z,21.40
2017-08-01T06:49:34.763Z,21.70
2017-08-01T06:52:03.195Z,21.60
2017-08-01T06:54:31.631Z,21.70
2017-08-01T06:57:00.079Z,21.70
2017-08-01T06:59:29.278Z,21.50
2017-08-01T07:01:57.721Z,21.50
2017-08-01T07:04:26.154Z,21.50
2017-08-01T07:06:55.345Z,21.40
2017-08-01T07:09:24.551Z,21.50
2017-08-01T07:11:54.591Z,21.40
2017-08-01T07:14:23.054Z,21.50
2017-08-01T07:16:52.470Z,21.60
2017-08-01T07:19:20.890Z,21.60
2017-08-01T07:21:49.340Z,21.80
2017-08-01T07:24:17.767Z,21.80
2017-08-01T07:26:46.214Z,21.90
2017-08-01T07:29:14.647Z,21.90
2017-08-01T07:31:43.760Z,22.00
2017-08-01T07:34:12.883Z,22.00
2017-08-01T07:36:41.298Z,22.10
2017-08-01T07:39:09.492Z,22.20
2017-08-01T07:41:38.008Z,22.20
2017-08-01T07:44:07.211Z,22.30
2017-08-01T07:46:36.384Z,22.20
2017-08-01T07:49:04.814Z,22.30
2017-08-01T07:51:34.090Z,22.50
2017-08-01T07:54:03.199Z,22.50
2017-08-01T07:56:31.679Z,22.70
2017-08-01T07:59:00.115Z,22.80
2017-08-01T08:01:28.540Z,22.80
2017-08-01T08:03:56.975Z,22.90
2017-08-01T08:06:25.398Z,22.90
2017-08-01T08:08:53.830Z,22.90
2017-08-01T08:11:22.267Z,22.90
2017-08-01T08:13:50.694Z,22.90
2017-08-01T08:16:19.108Z,23.00
2017-08-01T08:18:48.310Z,23.10
2017-08-01T08:21:17.495Z,23.10
2017-08-01T08:23:46.713Z,23.20
2017-08-01T08:26:15.898Z,23.30
2017-08-01T08:28:45.075Z,23.50
2017-08-01T08:31:13.511Z,23.50
2017-08-01T08:33:43.203Z,23.60
2017-08-01T08:36:11.647Z,23.50
2017-08-01T08:38:40.063Z,23.60
2017-08-01T08:41:09.241Z,23.70
2017-08-01T08:43:37.814Z,23.60
2017-08-01T08:46:06.278Z,23.80
2017-08-01T08:48:34.745Z,23.90
2017-08-01T08:51:04.618Z,24.10
2017-08-01T08:53:33.918Z,24.20
2017-08-01T08:56:03.130Z,24.20
2017-08-01T08:58:31.559Z,24.20
2017-08-01T09:00:59.993Z,24.40
2017-08-01T09:03:29.194Z,24.80
2017-08-01T09:05:57.627Z,24.70
2017-08-01T09:08:26.251Z,24.90
2017-08-01T09:10:55.444Z,25.40
2017-08-01T09:13:24.648Z,25.50
2017-08-01T09:15:54.625Z,25.50
2017-08-01T09:18:23.739Z,25.40
2017-08-01T09:20:52.303Z,25.40
2017-08-01T09:23:20.738Z,25.30
2017-08-01T09:25:49.202Z,25.20
2017-08-01T09:28:17.659Z,25.30
2017-08-01T09:30:46.083Z,25.50
2017-08-01T09:33:14.515Z,25.50
2017-08-01T09:35:42.962Z,25.60
2017-08-01T09:38:11.383Z,26.00
2017-08-01T09:40:39.816Z,26.00
2017-08-01T09:43:08.243Z,26.00
2017-08-01T09:45:36.693Z,26.20
2017-08-01T09:48:05.411Z,26.20
2017-08-01T09:50:33.832Z,26.00
2017-08-01T09:53:03.033Z,26.30
2017-08-01T09:55:32.239Z,26.50
2017-08-01T09:58:00.675Z,26.40
2017-08-01T10:00:29.095Z,26.60
2017-08-01T10:02:58.798Z,26.50
2017-08-01T10:05:27.977Z,26.60
2017-08-01T10:07:56.402Z,26.60
2017-08-01T10:10:24.835Z,26.80
2017-08-01T10:12:53.254Z,26.80
2017-08-01T10:15:21.691Z,26.70
2017-08-01T10:17:50.111Z,26.90
2017-08-01T10:20:19.315Z,27.00
2017-08-01T10:22:47.735Z,27.00
2017-08-01T10:25:16.171Z,27.20
2017-08-01T10:27:45.404Z,27.40
2017-08-01T10:30:13.958Z,27.30
2017-08-01T10:32:43.150Z,27.40
2017-08-01T10:35:12.354Z,27.40
2017-08-01T10:37:41.563Z,27.40
2017-08-01T10:40:10.068Z,27.40
2017-08-01T10:42:38.503Z,27.50
2017-08-01T10:45:06.939Z,27.50
2017-08-01T10:47:35.362Z,27.50
2017-08-01T10:50:04.186Z,27.90
2017-08-01T10:52:32.642Z,27.90
2017-08-01T10:55:01.843Z,28.20
2017-08-01T10:57:30.838Z,28.50
2017-08-01T11:00:00.054Z,28.60
2017-08-01T11:02:29.243Z,28.50
2017-08-01T11:04:58.577Z,28.70
2017-08-01T11:07:26.995Z,28.60
2017-08-01T11:09:55.429Z,28.70
2017-08-01T11:12:23.879Z,28.60
2017-08-01T11:14:53.074Z,29.30
2017-08-01T11:17:22.266Z,29.60
2017-08-01T11:19:51.411Z,29.60
2017-08-01T11:22:19.831Z,30.00
2017-08-01T11:24:48.967Z,30.30
2017-08-01T11:27:17.456Z,30.50
2017-08-01T11:29:46.839Z,30.20
2017-08-01T11:32:16.126Z,30.30
2017-08-01T11:34:44.546Z,30.20
2017-08-01T11:37:12.992Z,30.20
2017-08-01T11:39:41.415Z,30.40
2017-08-01T11:42:09.851Z,30.50
2017-08-01T11:44:38.296Z,30.20
2017-08-01T11:47:07.434Z,30.20
2017-08-01T11:49:35.859Z,29.80
2017-08-01T11:52:04.320Z,29.90
2017-08-01T11:54:33.506Z,30.00
2017-08-01T11:57:02.706Z,30.00
2017-08-01T11:59:31.891Z,30.00
2017-08-01T12:02:00.423Z,30.00
2017-08-01T12:04:28.932Z,30.30
2017-08-01T12:06:57.387Z,30.50
2017-08-01T12:09:25.826Z,30.80
2017-08-01T12:11:54.258Z,30.50
2017-08-01T12:14:22.706Z,30.80
2017-08-01T12:16:51.919Z,30.80
2017-08-01T12:19:20.587Z,30.80
2017-08-01T12:21:49.838Z,31.10
2017-08-01T12:24:18.279Z,31.00
2017-08-01T12:26:46.971Z,30.90
2017-08-01T12:29:15.412Z,30.90
2017-08-01T12:31:44.542Z,30.90
2017-08-01T12:34:13.726Z,31.10
2017-08-01T12:36:42.849Z,31.10
2017-08-01T12:39:11.303Z,31.20
2017-08-01T12:41:39.728Z,31.40
2017-08-01T12:44:09.674Z,31.60
2017-08-01T12:46:38.114Z,31.50
2017-08-01T12:49:06.530Z,31.80
2017-08-01T12:51:34.951Z,31.80
2017-08-01T12:54:04.080Z,32.20
2017-08-01T12:56:32.778Z,32.20
2017-08-01T12:59:01.335Z,32.10
2017-08-01T13:01:29.783Z,32.20
2017-08-01T13:03:58.224Z,31.90
2017-08-01T13:06:26.680Z,31.70
2017-08-01T13:08:55.095Z,31.90
2017-08-01T13:11:23.614Z,32.30
2017-08-01T13:13:52.727Z,32.20
2017-08-01T13:16:21.923Z,32.50
2017-08-01T13:18:51.102Z,32.90
2017-08-01T13:21:19.548Z,32.80
2017-08-01T13:23:48.668Z,32.80
2017-08-01T13:26:17.115Z,32.70
2017-08-01T13:28:45.533Z,32.80
2017-08-01T13:31:13.775Z,32.90
2017-08-01T13:33:42.219Z,32.60
2017-08-01T13:36:10.727Z,32.60
2017-08-01T13:38:39.171Z,32.80
2017-08-01T13:41:07.605Z,32.70
2017-08-01T13:43:36.074Z,32.90
2017-08-01T13:46:04.532Z,33.00
2017-08-01T13:48:32.981Z,33.10
2017-08-01T13:51:01.428Z,33.50
2017-08-01T13:53:29.859Z,33.20
2017-08-01T13:55:58.376Z,32.90
2017-08-01T13:58:26.891Z,32.80
2017-08-01T14:00:55.990Z,32.60
2017-08-01T14:03:24.442Z,32.50
2017-08-01T14:05:52.871Z,32.10
2017-08-01T14:08:21.324Z,31.70
2017-08-01T14:10:49.742Z,31.60
2017-08-01T14:13:18.168Z,31.60
2017-08-01T14:15:46.638Z,31.30
2017-08-01T14:18:15.087Z,31.00
2017-08-01T14:20:43.551Z,31.00
2017-08-01T14:23:11.975Z,30.70
2017-08-01T14:25:40.469Z,31.30
2017-08-01T14:28:08.949Z,32.40
2017-08-01T14:30:38.135Z,33.20
2017-08-01T14:33:07.341Z,32.90
2017-08-01T14:35:36.523Z,33.20
2017-08-01T14:38:04.943Z,33.20
2017-08-01T14:40:33.377Z,33.00
2017-08-01T14:43:01.807Z,32.90
2017-08-01T14:45:30.982Z,33.30
2017-08-01T14:47:59.402Z,33.50
2017-08-01T14:50:27.843Z,33.00
2017-08-01T14:52:56.287Z,31.60
2017-08-01T14:55:24.707Z,29.50
2017-08-01T14:57:53.935Z,28.70
2017-08-01T15:00:23.823Z,28.60
2017-08-01T15:02:53.026Z,28.50
2017-08-01T15:05:21.460Z,27.90
2017-08-01T15:07:49.990Z,27.20
2017-08-01T15:10:18.532Z,27.10
2017-08-01T15:12:47.819Z,26.80
2017-08-01T15:15:16.267Z,26.30
2017-08-01T15:17:44.695Z,26.20
2017-08-01T15:20:13.132Z,25.80
2017-08-01T15:22:41.567Z,25.90
2017-08-01T15:25:09.979Z,25.80
2017-08-01T15:27:38.487Z,25.80
2017-08-01T15:30:07.605Z,25.70
2017-08-01T15:32:36.054Z,25.60
2017-08-01T15:35:04.479Z,25.70
2017-08-01T15:37:32.723Z,25.50
2017-08-01T15:40:01.855Z,25.30
2017-08-01T15:42:30.311Z,24.90
2017-08-01T15:44:58.827Z,24.90
2017-08-01T15:47:27.335Z,24.70
2017-08-01T15:49:55.756Z,24.80
2017-08-01T15:52:24.636Z,24.90
2017-08-01T15:54:53.849Z,25.00
2017-08-01T15:57:22.304Z,25.10
2017-08-01T15:59:50.713Z,25.40
2017-08-01T16:02:19.891Z,25.60
2017-08-01T16:04:48.347Z,25.60
2017-08-01T16:07:16.775Z,25.80
2017-08-01T16:09:45.594Z,25.60
2017-08-01T16:12:14.045Z,25.50
2017-08-01T16:14:42.519Z,25.20
2017-08-01T16:17:11.656Z,25.00
2017-08-01T16:19:40.082Z,25.00
2017-08-01T16:22:08.599Z,25.20
2017-08-01T16:24:37.042Z,25.50
2017-08-01T16:27:05.153Z,25.80
2017-08-01T16:29:33.628Z,25.30
2017-08-01T16:32:02.043Z,25.20
2017-08-01T16:34:30.874Z,24.90
2017-08-01T16:36:59.692Z,24.70
2017-08-01T16:39:28.123Z,24.60
2017-08-01T16:41:57.371Z,24.50
2017-08-01T16:44:25.806Z,24.50
2017-08-01T16:46:55.158Z,24.80
2017-08-01T16:49:23.582Z,24.80
2017-08-01T16:51:52.048Z,24.30
2017-08-01T16:54:20.492Z,23.90
2017-08-01T16:56:48.942Z,23.20
2017-08-01T16:59:17.787Z,22.90
2017-08-01T17:01:46.624Z,22.80
2017-08-01T17:04:15.872Z,22.80
2017-08-01T17:06:44.325Z,22.80
2017-08-01T17:09:12.858Z,22.70
2017-08-01T17:11:41.713Z,22.80
2017-08-01T17:14:10.156Z,22.70
2017-08-01T17:16:39.505Z,22.70
2017-08-01T17:19:07.941Z,22.70
2017-08-01T17:21:37.144Z,22.60
2017-08-01T17:24:05.593Z,22.70
2017-08-01T17:26:34.036Z,22.70
2017-08-01T17:29:02.464Z,22.60
2017-08-01T17:31:30.983Z,22.50
2017-08-01T17:33:59.436Z,22.40
2017-08-01T17:36:27.903Z,22.30
2017-08-01T17:38:56.354Z,22.30
2017-08-01T17:41:24.915Z,22.30
2017-08-01T17:43:53.755Z,22.40
2017-08-01T17:46:22.209Z,22.40
2017-08-01T17:48:50.662Z,22.40
2017-08-01T17:51:19.804Z,22.40
2017-08-01T17:53:48.671Z,22.30
2017-08-01T17:56:17.114Z,22.00
2017-08-01T17:58:45.574Z,21.90
2017-08-01T18:01:14.395Z,21.80
2017-08-01T18:03:42.828Z,21.80
2017-08-01T18:06:11.314Z,21.80
2017-08-01T18:08:39.828Z,21.80
2017-08-01T18:11:08.280Z,21.70
2017-08-01T18:13:37.316Z,21.70
2017-08-01T18:16:05.778Z,21.60
2017-08-01T18:18:34.995Z,21.50
2017-08-01T18:21:03.443Z,21.40
2017-08-01T18:23:31.927Z,21.50
2017-08-01T18:26:00.864Z,21.50
2017-08-01T18:28:29.466Z,21.40
2017-08-01T18:30:57.936Z,21.40
2017-08-01T18:33:26.448Z,21.40
2017-08-01T18:35:54.942Z,21.40
2017-08-01T18:38:23.779Z,21.40
2017-08-01T18:40:52.627Z,21.30
2017-08-01T18:43:21.467Z,21.30
2017-08-01T18:45:50.436Z,21.20
2017-08-01T18:48:19.332Z,21.20
2017-08-01T18:50:47.772Z,21.10
2017-08-01T18:53:16.248Z,21.10
2017-08-01T18:55:44.666Z,21.00
2017-08-01T18:58:13.174Z,21.00
2017-08-01T19:00:41.656Z,21.00
2017-08-01T19:03:11.104Z,20.90
2017-08-01T19:05:40.351Z,21.00
2017-08-01T19:08:09.019Z,21.00
2017-08-01T19:10:38.482Z,21.00
2017-08-01T19:13:08.057Z,21.00
2017-08-01T19:15:37.149Z,21.00
2017-08-01T19:18:05.617Z,21.00
2017-08-01T19:20:34.336Z,21.00
2017-08-01T19:23:03.060Z,21.00
2017-08-01T19:25:31.933Z,21.00
2017-08-01T19:28:01.030Z,20.80
2017-08-01T19:30:30.155Z,20.60
2017-08-01T19:32:58.913Z,20.50
2017-08-01T19:35:27.830Z,20.60
2017-08-01T19:37:56.907Z,20.50
2017-08-01T19:40:25.408Z,20.30
2017-08-01T19:42:54.060Z,20.30
2017-08-01T19:45:22.886Z,20.40
2017-08-01T19:47:51.770Z,20.40
2017-08-01T19:50:20.597Z,20.30
2017-08-01T19:52:50.173Z,20.40
2017-08-01T19:55:18.705Z,20.40
2017-08-01T19:57:47.401Z,20.30
2017-08-01T20:00:15.901Z,20.40
2017-08-01T20:02:45.642Z,20.40
2017-08-01T20:05:14.138Z,20.30
2017-08-01T20:07:43.431Z,20.40
2017-08-01T20:10:12.214Z,20.40
2017-08-01T20:12:41.001Z,20.40
2017-08-01T20:15:09.792Z,20.30
2017-08-01T20:17:38.582Z,20.30
2017-08-01T20:20:07.065Z,20.30
2017-08-01T20:22:35.514Z,20.30
2017-08-01T20:25:04.767Z,20.40
2017-08-01T20:27:33.266Z,20.30
2017-08-01T20:30:01.923Z,20.30
2017-08-01T20:32:30.415Z,20.40
2017-08-01T20:34:58.931Z,20.40
2017-08-01T20:37:27.565Z,20.40
2017-08-01T20:39:56.098Z,20.40
2017-08-01T20:42:25.340Z,20.40
2017-08-01T20:44:53.798Z,20.30
2017-08-01T20:47:23.014Z,20.40
2017-08-01T20:49:51.411Z,20.40
2017-08-01T20:52:19.873Z,20.40
2017-08-01T20:54:49.111Z,20.40
2017-08-01T20:57:17.658Z,20.30
2017-08-01T20:59:46.875Z,20.30
2017-08-01T21:02:15.319Z,20.20
2017-08-01T21:04:44.516Z,20.30
2017-08-01T21:07:13.741Z,20.20
2017-08-01T21:09:42.266Z,20.20
2017-08-01T21:12:10.703Z,20.20
2017-08-01T21:14:39.151Z,20.10
2017-08-01T21:17:08.365Z,20.10
2017-08-01T21:19:37.584Z,20.10
2017-08-01T21:22:06.023Z,20.10
2017-08-01T21:24:34.478Z,20.10
2017-08-01T21:27:02.916Z,20.10
2017-08-01T21:29:32.240Z,20.10
2017-08-01T21:32:00.672Z,20.10
2017-08-01T21:34:30.130Z,20.10
2017-08-01T21:36:58.599Z,20.10
2017-08-01T21:39:27.047Z,20.10
2017-08-01T21:41:55.610Z,20.10
2017-08-01T21:44:24.135Z,20.00
2017-08-01T21:46:53.364Z,20.00
2017-08-01T21:49:21.808Z,20.00
2017-08-01T21:51:51.153Z,20.10
2017-08-01T21:54:19.596Z,20.00
2017-08-01T21:56:48.806Z,20.10
2017-08-01T21:59:17.247Z,20.00
2017-08-01T22:01:45.832Z,20.00
2017-08-01T22:04:14.283Z,20.00
2017-08-01T22:06:43.415Z,20.10
2017-08-01T22:09:11.838Z,20.00
2017-08-01T22:11:40.291Z,20.00
2017-08-01T22:14:09.504Z,19.90
2017-08-01T22:16:38.697Z,19.90
2017-08-01T22:19:07.932Z,19.90
2017-08-01T22:21:36.374Z,19.80
2017-08-01T22:24:05.566Z,19.80
2017-08-01T22:26:33.997Z,19.80
2017-08-01T22:29:02.440Z,19.80
2017-08-01T22:31:31.650Z,19.80
2017-08-01T22:34:00.075Z,19.80
2017-08-01T22:36:28.534Z,19.80
2017-08-01T22:38:56.959Z,19.80
2017-08-01T22:41:25.507Z,19.80
2017-08-01T22:43:53.951Z,19.70
2017-08-01T22:46:23.147Z,19.80
2017-08-01T22:48:52.354Z,19.80
2017-08-01T22:51:21.552Z,19.70
2017-08-01T22:53:50.662Z,19.70
2017-08-01T22:56:19.117Z,19.70
2017-08-01T22:58:47.549Z,19.70
2017-08-01T23:01:16.663Z,19.70
2017-08-01T23:03:45.103Z,19.70
2017-08-01T23:06:13.544Z,19.60
2017-08-01T23:08:41.988Z,19.70
2017-08-01T23:11:10.415Z,19.70
2017-08-01T23:13:38.830Z,19.70
2017-08-01T23:16:07.283Z,19.70
2017-08-01T23:18:36.470Z,19.70
2017-08-01T23:21:04.912Z,19.60
2017-08-01T23:23:33.367Z,19.60
2017-08-01T23:26:02.560Z,19.60
2017-08-01T23:28:31.814Z,19.50
2017-08-01T23:31:00.275Z,19.50
2017-08-01T23:33:28.710Z,19.50
2017-08-01T23:35:58.005Z,19.40
2017-08-01T23:38:26.426Z,19.40
2017-08-01T23:40:54.855Z,19.40
2017-08-01T23:43:23.303Z,19.30
2017-08-01T23:45:51.747Z,19.20
2017-08-01T23:48:20.956Z,19.30
2017-08-01T23:50:49.386Z,19.20
2017-08-01T23:53:17.823Z,19.10
2017-08-01T23:55:46.291Z,19.20
2017-08-01T23:58:15.502Z,19.10
